sensor_id;sensor_type;location;lat;lon;timestamp;P1;durP1;ratioP1;P2;durP2;ratioP2
61038;SDS011;46919;45.816;3.104;2023-07-28T00:01:24;2.17;;;1.40;;
61038;SDS011;46919;45.816;3.104;2023-07-28T00:03:50;2.47;;;1.50;;
61038;SDS011;46919;45.816;3.104;2023-07-28T00:06:15;1.85;;;1.40;;
61038;SDS011;46919;45.816;3.104;2023-07-28T00:08:40;3.03;;;1.75;;
61038;SDS011;46919;45.816;3.104;2023-07-28T00:11:09;1.95;;;1.38;;
61038;SDS011;46919;45.816;3.104;2023-07-28T00:13:37;1.55;;;1.30;;
61038;SDS011;46919;45.816;3.104;2023-07-28T00:16:02;1.88;;;1.60;;
61038;SDS011;46919;45.816;3.104;2023-07-28T00:18:28;1.52;;;1.30;;
61038;SDS011;46919;45.816;3.104;2023-07-28T00:20:53;2.47;;;1.63;;
61038;SDS011;46919;45.816;3.104;2023-07-28T00:23:19;2.97;;;1.25;;
61038;SDS011;46919;45.816;3.104;2023-07-28T00:25:44;1.95;;;1.38;;
61038;SDS011;46919;45.816;3.104;2023-07-28T00:28:10;2.15;;;1.35;;
61038;SDS011;46919;45.816;3.104;2023-07-28T00:30:35;3.42;;;1.45;;
61038;SDS011;46919;45.816;3.104;2023-07-28T00:33:00;2.38;;;1.30;;
61038;SDS011;46919;45.816;3.104;2023-07-28T00:35:26;2.50;;;1.38;;
61038;SDS011;46919;45.816;3.104;2023-07-28T00:37:51;2.17;;;1.40;;
61038;SDS011;46919;45.816;3.104;2023-07-28T00:40:16;2.38;;;1.48;;
61038;SDS011;46919;45.816;3.104;2023-07-28T00:42:42;1.95;;;1.58;;
61038;SDS011;46919;45.816;3.104;2023-07-28T00:45:07;1.65;;;1.40;;
61038;SDS011;46919;45.816;3.104;2023-07-28T00:47:33;2.25;;;1.60;;
61038;SDS011;46919;45.816;3.104;2023-07-28T00:50:00;3.25;;;1.38;;
61038;SDS011;46919;45.816;3.104;2023-07-28T00:52:25;1.70;;;1.50;;
61038;SDS011;46919;45.816;3.104;2023-07-28T00:54:51;1.88;;;1.35;;
61038;SDS011;46919;45.816;3.104;2023-07-28T00:57:16;2.00;;;1.52;;
61038;SDS011;46919;45.816;3.104;2023-07-28T00:59:43;2.33;;;1.40;;
61038;SDS011;46919;45.816;3.104;2023-07-28T01:02:10;3.08;;;1.48;;
61038;SDS011;46919;45.816;3.104;2023-07-28T01:04:35;2.33;;;1.40;;
61038;SDS011;46919;45.816;3.104;2023-07-28T01:07:07;2.55;;;1.30;;
61038;SDS011;46919;45.816;3.104;2023-07-28T01:09:40;2.67;;;1.60;;
61038;SDS011;46919;45.816;3.104;2023-07-28T01:12:11;2.63;;;1.25;;
61038;SDS011;46919;45.816;3.104;2023-07-28T01:14:37;3.03;;;1.40;;
61038;SDS011;46919;45.816;3.104;2023-07-28T01:17:02;3.20;;;1.40;;
61038;SDS011;46919;45.816;3.104;2023-07-28T01:19:28;2.47;;;1.35;;
61038;SDS011;46919;45.816;3.104;2023-07-28T01:21:57;2.13;;;1.55;;
61038;SDS011;46919;45.816;3.104;2023-07-28T01:27:13;3.47;;;1.80;;
61038;SDS011;46919;45.816;3.104;2023-07-28T01:29:38;2.17;;;1.98;;
61038;SDS011;46919;45.816;3.104;2023-07-28T01:32:04;6.55;;;4.20;;
61038;SDS011;46919;45.816;3.104;2023-07-28T01:34:30;7.72;;;4.88;;
61038;SDS011;46919;45.816;3.104;2023-07-28T01:36:55;9.95;;;6.57;;
61038;SDS011;46919;45.816;3.104;2023-07-28T01:39:21;10.90;;;6.30;;
61038;SDS011;46919;45.816;3.104;2023-07-28T01:41:46;11.18;;;6.68;;
61038;SDS011;46919;45.816;3.104;2023-07-28T01:44:11;8.45;;;5.88;;
61038;SDS011;46919;45.816;3.104;2023-07-28T01:46:38;10.07;;;5.55;;
61038;SDS011;46919;45.816;3.104;2023-07-28T01:49:04;10.98;;;5.70;;
61038;SDS011;46919;45.816;3.104;2023-07-28T01:51:29;9.63;;;5.82;;
61038;SDS011;46919;45.816;3.104;2023-07-28T01:53:55;9.23;;;5.57;;
61038;SDS011;46919;45.816;3.104;2023-07-28T01:56:20;5.30;;;3.92;;
61038;SDS011;46919;45.816;3.104;2023-07-28T01:58:45;7.22;;;4.00;;
61038;SDS011;46919;45.816;3.104;2023-07-28T02:01:12;8.40;;;5.20;;
61038;SDS011;46919;45.816;3.104;2023-07-28T02:03:38;6.30;;;4.38;;
61038;SDS011;46919;45.816;3.104;2023-07-28T02:06:03;4.68;;;2.97;;
61038;SDS011;46919;45.816;3.104;2023-07-28T02:08:29;5.65;;;3.85;;
61038;SDS011;46919;45.816;3.104;2023-07-28T02:10:54;7.05;;;4.00;;
61038;SDS011;46919;45.816;3.104;2023-07-28T02:13:19;5.25;;;4.13;;
61038;SDS011;46919;45.816;3.104;2023-07-28T02:15:45;6.95;;;4.03;;
61038;SDS011;46919;45.816;3.104;2023-07-28T02:18:10;3.75;;;3.17;;
61038;SDS011;46919;45.816;3.104;2023-07-28T02:20:36;4.53;;;2.40;;
61038;SDS011;46919;45.816;3.104;2023-07-28T02:23:02;2.42;;;2.20;;
61038;SDS011;46919;45.816;3.104;2023-07-28T02:25:28;3.72;;;2.20;;
61038;SDS011;46919;45.816;3.104;2023-07-28T02:27:53;3.15;;;2.42;;
61038;SDS011;46919;45.816;3.104;2023-07-28T02:30:19;3.38;;;2.88;;
61038;SDS011;46919;45.816;3.104;2023-07-28T02:32:44;3.65;;;2.50;;
61038;SDS011;46919;45.816;3.104;2023-07-28T02:35:09;2.30;;;1.90;;
61038;SDS011;46919;45.816;3.104;2023-07-28T02:37:35;2.47;;;2.00;;
61038;SDS011;46919;45.816;3.104;2023-07-28T02:40:01;3.15;;;1.90;;
61038;SDS011;46919;45.816;3.104;2023-07-28T02:42:26;3.58;;;2.33;;
61038;SDS011;46919;45.816;3.104;2023-07-28T02:44:51;5.25;;;2.47;;
61038;SDS011;46919;45.816;3.104;2023-07-28T02:47:17;2.22;;;2.03;;
61038;SDS011;46919;45.816;3.104;2023-07-28T02:49:42;4.22;;;2.03;;
61038;SDS011;46919;45.816;3.104;2023-07-28T02:52:08;6.78;;;2.97;;
61038;SDS011;46919;45.816;3.104;2023-07-28T02:54:34;3.58;;;2.40;;
61038;SDS011;46919;45.816;3.104;2023-07-28T02:56:59;2.53;;;2.30;;
61038;SDS011;46919;45.816;3.104;2023-07-28T02:59:24;3.22;;;2.28;;
61038;SDS011;46919;45.816;3.104;2023-07-28T03:01:50;4.47;;;2.30;;
61038;SDS011;46919;45.816;3.104;2023-07-28T03:04:17;3.72;;;2.20;;
61038;SDS011;46919;45.816;3.104;2023-07-28T03:06:44;2.53;;;2.20;;
61038;SDS011;46919;45.816;3.104;2023-07-28T03:09:09;4.47;;;3.63;;
61038;SDS011;46919;45.816;3.104;2023-07-28T03:11:35;3.00;;;2.60;;
61038;SDS011;46919;45.816;3.104;2023-07-28T03:14:00;2.90;;;2.50;;
61038;SDS011;46919;45.816;3.104;2023-07-28T03:16:25;4.35;;;2.40;;
61038;SDS011;46919;45.816;3.104;2023-07-28T03:18:51;3.08;;;2.47;;
61038;SDS011;46919;45.816;3.104;2023-07-28T03:21:16;5.78;;;2.90;;
61038;SDS011;46919;45.816;3.104;2023-07-28T03:23:41;4.05;;;2.60;;
61038;SDS011;46919;45.816;3.104;2023-07-28T03:26:07;4.13;;;3.00;;
61038;SDS011;46919;45.816;3.104;2023-07-28T03:28:32;4.75;;;2.53;;
61038;SDS011;46919;45.816;3.104;2023-07-28T03:30:58;4.05;;;2.85;;
61038;SDS011;46919;45.816;3.104;2023-07-28T03:33:23;4.57;;;3.15;;
61038;SDS011;46919;45.816;3.104;2023-07-28T03:35:48;3.67;;;2.75;;
61038;SDS011;46919;45.816;3.104;2023-07-28T03:38:14;3.78;;;2.67;;
61038;SDS011;46919;45.816;3.104;2023-07-28T03:40:39;2.83;;;2.40;;
61038;SDS011;46919;45.816;3.104;2023-07-28T03:43:04;3.20;;;2.78;;
61038;SDS011;46919;45.816;3.104;2023-07-28T03:45:30;5.45;;;2.63;;
61038;SDS011;46919;45.816;3.104;2023-07-28T03:47:55;4.97;;;3.03;;
61038;SDS011;46919;45.816;3.104;2023-07-28T03:50:21;4.13;;;3.00;;
61038;SDS011;46919;45.816;3.104;2023-07-28T03:52:46;4.80;;;3.28;;
61038;SDS011;46919;45.816;3.104;2023-07-28T03:55:11;6.60;;;2.85;;
61038;SDS011;46919;45.816;3.104;2023-07-28T03:57:37;3.22;;;2.65;;
61038;SDS011;46919;45.816;3.104;2023-07-28T04:00:02;2.30;;;2.08;;
61038;SDS011;46919;45.816;3.104;2023-07-28T04:02:28;5.30;;;2.67;;
61038;SDS011;46919;45.816;3.104;2023-07-28T04:04:54;6.13;;;2.67;;
61038;SDS011;46919;45.816;3.104;2023-07-28T04:07:20;2.75;;;2.40;;
61038;SDS011;46919;45.816;3.104;2023-07-28T04:09:45;2.95;;;2.50;;
61038;SDS011;46919;45.816;3.104;2023-07-28T04:12:10;3.25;;;2.67;;
61038;SDS011;46919;45.816;3.104;2023-07-28T04:14:36;4.00;;;2.72;;
61038;SDS011;46919;45.816;3.104;2023-07-28T04:17:01;3.63;;;2.40;;
61038;SDS011;46919;45.816;3.104;2023-07-28T04:19:27;2.90;;;2.20;;
61038;SDS011;46919;45.816;3.104;2023-07-28T04:21:54;3.22;;;2.17;;
61038;SDS011;46919;45.816;3.104;2023-07-28T04:24:19;2.95;;;2.55;;
61038;SDS011;46919;45.816;3.104;2023-07-28T04:26:44;2.47;;;2.25;;
61038;SDS011;46919;45.816;3.104;2023-07-28T04:29:13;2.88;;;2.30;;
61038;SDS011;46919;45.816;3.104;2023-07-28T04:31:39;5.53;;;2.80;;
61038;SDS011;46919;45.816;3.104;2023-07-28T04:34:04;6.20;;;2.50;;
61038;SDS011;46919;45.816;3.104;2023-07-28T04:36:30;3.50;;;2.47;;
61038;SDS011;46919;45.816;3.104;2023-07-28T04:38:55;5.55;;;2.60;;
61038;SDS011;46919;45.816;3.104;2023-07-28T04:41:20;7.15;;;2.65;;
61038;SDS011;46919;45.816;3.104;2023-07-28T04:43:46;2.83;;;2.53;;
61038;SDS011;46919;45.816;3.104;2023-07-28T04:46:11;3.50;;;2.60;;
61038;SDS011;46919;45.816;3.104;2023-07-28T04:48:36;3.40;;;2.20;;
61038;SDS011;46919;45.816;3.104;2023-07-28T04:51:02;3.17;;;2.22;;
61038;SDS011;46919;45.816;3.104;2023-07-28T04:53:27;5.07;;;2.47;;
61038;SDS011;46919;45.816;3.104;2023-07-28T04:55:53;11.38;;;3.38;;
61038;SDS011;46919;45.816;3.104;2023-07-28T04:58:18;14.93;;;3.53;;
61038;SDS011;46919;45.816;3.104;2023-07-28T05:00:43;26.30;;;4.88;;
61038;SDS011;46919;45.816;3.104;2023-07-28T05:03:09;30.05;;;4.57;;
61038;SDS011;46919;45.816;3.104;2023-07-28T05:05:34;6.22;;;2.50;;
61038;SDS011;46919;45.816;3.104;2023-07-28T05:07:59;2.65;;;2.35;;
61038;SDS011;46919;45.816;3.104;2023-07-28T05:10:25;6.47;;;2.63;;
61038;SDS011;46919;45.816;3.104;2023-07-28T05:12:50;6.47;;;2.80;;
61038;SDS011;46919;45.816;3.104;2023-07-28T05:15:15;8.48;;;2.72;;
61038;SDS011;46919;45.816;3.104;2023-07-28T05:17:43;9.55;;;2.95;;
61038;SDS011;46919;45.816;3.104;2023-07-28T05:20:08;5.60;;;2.85;;
61038;SDS011;46919;45.816;3.104;2023-07-28T05:22:34;3.30;;;2.30;;
61038;SDS011;46919;45.816;3.104;2023-07-28T05:24:59;3.65;;;2.05;;
61038;SDS011;46919;45.816;3.104;2023-07-28T05:27:24;4.65;;;2.92;;
61038;SDS011;46919;45.816;3.104;2023-07-28T05:29:50;3.00;;;2.10;;
61038;SDS011;46919;45.816;3.104;2023-07-28T05:32:15;3.15;;;2.13;;
61038;SDS011;46919;45.816;3.104;2023-07-28T05:34:43;5.15;;;2.60;;
61038;SDS011;46919;45.816;3.104;2023-07-28T05:37:09;4.50;;;2.30;;
61038;SDS011;46919;45.816;3.104;2023-07-28T05:39:35;5.82;;;2.75;;
61038;SDS011;46919;45.816;3.104;2023-07-28T05:42:00;2.50;;;2.20;;
61038;SDS011;46919;45.816;3.104;2023-07-28T05:44:26;4.18;;;2.63;;
61038;SDS011;46919;45.816;3.104;2023-07-28T05:46:52;3.83;;;2.80;;
61038;SDS011;46919;45.816;3.104;2023-07-28T05:49:17;4.72;;;2.38;;
61038;SDS011;46919;45.816;3.104;2023-07-28T05:51:42;2.92;;;2.00;;
61038;SDS011;46919;45.816;3.104;2023-07-28T05:54:08;3.80;;;2.53;;
61038;SDS011;46919;45.816;3.104;2023-07-28T05:56:33;4.88;;;2.63;;
61038;SDS011;46919;45.816;3.104;2023-07-28T05:58:59;2.95;;;2.60;;
61038;SDS011;46919;45.816;3.104;2023-07-28T06:01:24;4.07;;;2.53;;
61038;SDS011;46919;45.816;3.104;2023-07-28T06:03:52;2.70;;;2.20;;
61038;SDS011;46919;45.816;3.104;2023-07-28T06:06:20;5.30;;;2.70;;
61038;SDS011;46919;45.816;3.104;2023-07-28T06:08:46;4.60;;;2.53;;
61038;SDS011;46919;45.816;3.104;2023-07-28T06:11:11;3.58;;;2.20;;
61038;SDS011;46919;45.816;3.104;2023-07-28T06:13:36;3.25;;;2.30;;
61038;SDS011;46919;45.816;3.104;2023-07-28T06:16:02;4.03;;;2.38;;
61038;SDS011;46919;45.816;3.104;2023-07-28T06:18:27;7.60;;;2.45;;
61038;SDS011;46919;45.816;3.104;2023-07-28T06:20:53;4.57;;;2.67;;
61038;SDS011;46919;45.816;3.104;2023-07-28T06:23:18;5.35;;;2.38;;
61038;SDS011;46919;45.816;3.104;2023-07-28T06:25:43;5.13;;;2.45;;
61038;SDS011;46919;45.816;3.104;2023-07-28T06:28:10;3.80;;;2.75;;
61038;SDS011;46919;45.816;3.104;2023-07-28T06:30:36;3.75;;;2.30;;
61038;SDS011;46919;45.816;3.104;2023-07-28T06:33:02;3.78;;;2.45;;
61038;SDS011;46919;45.816;3.104;2023-07-28T06:35:28;3.70;;;2.17;;
61038;SDS011;46919;45.816;3.104;2023-07-28T06:37:54;3.80;;;2.42;;
61038;SDS011;46919;45.816;3.104;2023-07-28T06:40:19;3.72;;;2.33;;
61038;SDS011;46919;45.816;3.104;2023-07-28T06:42:45;6.53;;;2.40;;
61038;SDS011;46919;45.816;3.104;2023-07-28T06:45:11;2.70;;;2.45;;
61038;SDS011;46919;45.816;3.104;2023-07-28T06:47:37;5.50;;;2.20;;
61038;SDS011;46919;45.816;3.104;2023-07-28T06:50:02;4.10;;;2.30;;
61038;SDS011;46919;45.816;3.104;2023-07-28T06:52:27;3.55;;;2.42;;
61038;SDS011;46919;45.816;3.104;2023-07-28T06:54:53;6.35;;;2.33;;
61038;SDS011;46919;45.816;3.104;2023-07-28T06:57:19;5.03;;;2.70;;
61038;SDS011;46919;45.816;3.104;2023-07-28T06:59:45;3.22;;;2.50;;
61038;SDS011;46919;45.816;3.104;2023-07-28T07:02:10;4.85;;;2.42;;
61038;SDS011;46919;45.816;3.104;2023-07-28T07:04:36;4.68;;;2.50;;
61038;SDS011;46919;45.816;3.104;2023-07-28T07:07:02;4.28;;;2.20;;
61038;SDS011;46919;45.816;3.104;2023-07-28T07:09:27;4.72;;;2.50;;
61038;SDS011;46919;45.816;3.104;2023-07-28T07:11:54;3.38;;;2.35;;
61038;SDS011;46919;45.816;3.104;2023-07-28T07:14:19;4.13;;;2.45;;
61038;SDS011;46919;45.816;3.104;2023-07-28T07:16:45;6.03;;;2.20;;
61038;SDS011;46919;45.816;3.104;2023-07-28T07:19:10;7.07;;;2.58;;
61038;SDS011;46919;45.816;3.104;2023-07-28T07:21:36;5.78;;;2.60;;
61038;SDS011;46919;45.816;3.104;2023-07-28T07:24:02;4.95;;;2.40;;
61038;SDS011;46919;45.816;3.104;2023-07-28T07:26:28;4.72;;;2.70;;
61038;SDS011;46919;45.816;3.104;2023-07-28T07:28:54;5.22;;;2.30;;
61038;SDS011;46919;45.816;3.104;2023-07-28T07:31:19;6.07;;;2.10;;
61038;SDS011;46919;45.816;3.104;2023-07-28T07:33:45;5.53;;;2.42;;
61038;SDS011;46919;45.816;3.104;2023-07-28T07:36:14;3.88;;;2.10;;
61038;SDS011;46919;45.816;3.104;2023-07-28T07:38:40;3.22;;;2.38;;
61038;SDS011;46919;45.816;3.104;2023-07-28T07:41:07;6.65;;;2.33;;
61038;SDS011;46919;45.816;3.104;2023-07-28T07:43:33;6.97;;;2.28;;
61038;SDS011;46919;45.816;3.104;2023-07-28T07:45:59;4.35;;;2.50;;
61038;SDS011;46919;45.816;3.104;2023-07-28T07:48:25;4.45;;;2.50;;
61038;SDS011;46919;45.816;3.104;2023-07-28T07:50:51;3.55;;;2.50;;
61038;SDS011;46919;45.816;3.104;2023-07-28T07:53:16;3.85;;;2.63;;
61038;SDS011;46919;45.816;3.104;2023-07-28T07:55:42;4.15;;;2.92;;
61038;SDS011;46919;45.816;3.104;2023-07-28T07:58:07;4.97;;;2.63;;
61038;SDS011;46919;45.816;3.104;2023-07-28T08:00:33;5.03;;;2.80;;
61038;SDS011;46919;45.816;3.104;2023-07-28T08:02:59;5.18;;;2.28;;
61038;SDS011;46919;45.816;3.104;2023-07-28T08:05:24;5.32;;;2.75;;
61038;SDS011;46919;45.816;3.104;2023-07-28T08:07:50;5.43;;;2.40;;
61038;SDS011;46919;45.816;3.104;2023-07-28T08:10:15;3.13;;;2.30;;
61038;SDS011;46919;45.816;3.104;2023-07-28T08:12:42;5.35;;;2.47;;
61038;SDS011;46919;45.816;3.104;2023-07-28T08:15:09;8.27;;;2.47;;
61038;SDS011;46919;45.816;3.104;2023-07-28T08:17:35;2.05;;;1.52;;
61038;SDS011;46919;45.816;3.104;2023-07-28T08:20:00;1.67;;;1.20;;
61038;SDS011;46919;45.816;3.104;2023-07-28T08:22:26;2.20;;;1.85;;
61038;SDS011;46919;45.816;3.104;2023-07-28T08:24:52;2.00;;;1.50;;
61038;SDS011;46919;45.816;3.104;2023-07-28T08:27:17;2.95;;;2.13;;
61038;SDS011;46919;45.816;3.104;2023-07-28T08:29:42;2.58;;;1.90;;
61038;SDS011;46919;45.816;3.104;2023-07-28T08:32:08;2.70;;;1.85;;
61038;SDS011;46919;45.816;3.104;2023-07-28T08:34:34;2.15;;;1.73;;
61038;SDS011;46919;45.816;3.104;2023-07-28T08:36:59;2.75;;;1.75;;
61038;SDS011;46919;45.816;3.104;2023-07-28T08:39:24;2.67;;;1.73;;
61038;SDS011;46919;45.816;3.104;2023-07-28T08:42:02;1.83;;;1.40;;
61038;SDS011;46919;45.816;3.104;2023-07-28T08:44:31;4.07;;;1.83;;
61038;SDS011;46919;45.816;3.104;2023-07-28T08:46:58;2.00;;;1.80;;
61038;SDS011;46919;45.816;3.104;2023-07-28T08:49:28;3.72;;;2.20;;
61038;SDS011;46919;45.816;3.104;2023-07-28T08:51:57;2.30;;;1.83;;
61038;SDS011;46919;45.816;3.104;2023-07-28T08:54:24;3.40;;;2.33;;
61038;SDS011;46919;45.816;3.104;2023-07-28T08:56:49;7.15;;;2.10;;
61038;SDS011;46919;45.816;3.104;2023-07-28T08:59:25;8.43;;;2.22;;
61038;SDS011;46919;45.816;3.104;2023-07-28T09:01:52;5.07;;;2.20;;
61038;SDS011;46919;45.816;3.104;2023-07-28T09:04:19;6.07;;;2.20;;
61038;SDS011;46919;45.816;3.104;2023-07-28T09:06:45;2.92;;;2.25;;
61038;SDS011;46919;45.816;3.104;2023-07-28T09:09:12;5.05;;;2.33;;
61038;SDS011;46919;45.816;3.104;2023-07-28T09:11:48;3.33;;;2.05;;
61038;SDS011;46919;45.816;3.104;2023-07-28T09:14:16;2.25;;;2.05;;
61038;SDS011;46919;45.816;3.104;2023-07-28T09:16:43;4.15;;;2.00;;
61038;SDS011;46919;45.816;3.104;2023-07-28T09:19:09;3.15;;;1.80;;
61038;SDS011;46919;45.816;3.104;2023-07-28T09:21:35;5.30;;;2.20;;
61038;SDS011;46919;45.816;3.104;2023-07-28T09:24:05;3.15;;;1.80;;
61038;SDS011;46919;45.816;3.104;2023-07-28T09:29:28;3.70;;;2.00;;
61038;SDS011;46919;45.816;3.104;2023-07-28T09:31:53;2.55;;;2.00;;
61038;SDS011;46919;45.816;3.104;2023-07-28T09:34:25;3.80;;;1.95;;
61038;SDS011;46919;45.816;3.104;2023-07-28T09:36:55;4.47;;;2.38;;
61038;SDS011;46919;45.816;3.104;2023-07-28T09:39:22;2.75;;;2.50;;
61038;SDS011;46919;45.816;3.104;2023-07-28T09:41:48;2.20;;;1.95;;
61038;SDS011;46919;45.816;3.104;2023-07-28T09:44:14;3.20;;;2.28;;
61038;SDS011;46919;45.816;3.104;2023-07-28T09:46:50;3.88;;;1.58;;
61038;SDS011;46919;45.816;3.104;2023-07-28T09:49:20;2.47;;;1.80;;
61038;SDS011;46919;45.816;3.104;2023-07-28T09:51:52;1.65;;;1.50;;
61038;SDS011;46919;45.816;3.104;2023-07-28T09:54:25;1.40;;;1.30;;
61038;SDS011;46919;45.816;3.104;2023-07-28T09:56:56;1.75;;;1.65;;
61038;SDS011;46919;45.816;3.104;2023-07-28T09:59:28;2.40;;;1.58;;
61038;SDS011;46919;45.816;3.104;2023-07-28T10:01:57;2.13;;;1.42;;
61038;SDS011;46919;45.816;3.104;2023-07-28T10:04:23;4.22;;;2.05;;
61038;SDS011;46919;45.816;3.104;2023-07-28T10:06:50;1.92;;;1.67;;
61038;SDS011;46919;45.816;3.104;2023-07-28T10:09:21;2.03;;;1.83;;
61038;SDS011;46919;45.816;3.104;2023-07-28T10:12:02;1.95;;;1.70;;
61038;SDS011;46919;45.816;3.104;2023-07-28T10:14:29;1.90;;;1.70;;
61038;SDS011;46919;45.816;3.104;2023-07-28T10:17:03;2.22;;;1.92;;
61038;SDS011;46919;45.816;3.104;2023-07-28T10:19:33;2.38;;;2.03;;
61038;SDS011;46919;45.816;3.104;2023-07-28T10:22:08;6.68;;;2.10;;
61038;SDS011;46919;45.816;3.104;2023-07-28T10:24:55;2.38;;;1.73;;
61038;SDS011;46919;45.816;3.104;2023-07-28T10:27:28;2.35;;;2.00;;
61038;SDS011;46919;45.816;3.104;2023-07-28T10:30:00;3.28;;;2.00;;
61038;SDS011;46919;45.816;3.104;2023-07-28T10:32:36;3.50;;;2.10;;
61038;SDS011;46919;45.816;3.104;2023-07-28T10:37:38;2.05;;;1.85;;
61038;SDS011;46919;45.816;3.104;2023-07-28T10:40:27;2.00;;;1.80;;
61038;SDS011;46919;45.816;3.104;2023-07-28T10:43:04;2.03;;;1.90;;
61038;SDS011;46919;45.816;3.104;2023-07-28T10:45:31;2.08;;;1.88;;
61038;SDS011;46919;45.816;3.104;2023-07-28T10:47:58;2.55;;;1.80;;
61038;SDS011;46919;45.816;3.104;2023-07-28T10:50:28;3.03;;;1.70;;
61038;SDS011;46919;45.816;3.104;2023-07-28T10:52:55;2.65;;;1.92;;
61038;SDS011;46919;45.816;3.104;2023-07-28T10:55:22;2.05;;;1.60;;
61038;SDS011;46919;45.816;3.104;2023-07-28T10:57:50;2.65;;;1.85;;
61038;SDS011;46919;45.816;3.104;2023-07-28T11:00:19;2.50;;;2.00;;
61038;SDS011;46919;45.816;3.104;2023-07-28T11:02:50;1.95;;;1.85;;
61038;SDS011;46919;45.816;3.104;2023-07-28T11:05:20;3.75;;;1.95;;
61038;SDS011;46919;45.816;3.104;2023-07-28T11:07:56;1.80;;;1.55;;
61038;SDS011;46919;45.816;3.104;2023-07-28T11:10:23;2.03;;;1.70;;
61038;SDS011;46919;45.816;3.104;2023-07-28T11:12:49;3.30;;;1.83;;
61038;SDS011;46919;45.816;3.104;2023-07-28T11:15:16;2.20;;;1.80;;
61038;SDS011;46919;45.816;3.104;2023-07-28T11:17:44;1.70;;;1.60;;
61038;SDS011;46919;45.816;3.104;2023-07-28T11:22:41;3.33;;;2.05;;
61038;SDS011;46919;45.816;3.104;2023-07-28T11:25:08;2.05;;;1.63;;
61038;SDS011;46919;45.816;3.104;2023-07-28T11:27:34;2.67;;;1.90;;
61038;SDS011;46919;45.816;3.104;2023-07-28T11:30:01;3.17;;;1.80;;
61038;SDS011;46919;45.816;3.104;2023-07-28T11:32:28;2.75;;;1.98;;
61038;SDS011;46919;45.816;3.104;2023-07-28T11:34:54;2.08;;;1.88;;
61038;SDS011;46919;45.816;3.104;2023-07-28T11:37:20;1.70;;;1.60;;
61038;SDS011;46919;45.816;3.104;2023-07-28T11:39:46;2.47;;;2.00;;
61038;SDS011;46919;45.816;3.104;2023-07-28T11:42:11;2.20;;;1.85;;
61038;SDS011;46919;45.816;3.104;2023-07-28T11:44:37;1.73;;;1.63;;
61038;SDS011;46919;45.816;3.104;2023-07-28T11:47:04;2.17;;;1.92;;
61038;SDS011;46919;45.816;3.104;2023-07-28T11:49:30;1.90;;;1.80;;
61038;SDS011;46919;45.816;3.104;2023-07-28T11:51:56;2.65;;;1.70;;
61038;SDS011;46919;45.816;3.104;2023-07-28T11:54:24;2.65;;;1.80;;
61038;SDS011;46919;45.816;3.104;2023-07-28T11:56:53;4.03;;;1.70;;
61038;SDS011;46919;45.816;3.104;2023-07-28T11:59:20;2.80;;;2.10;;
61038;SDS011;46919;45.816;3.104;2023-07-28T12:04:28;1.98;;;1.75;;
61038;SDS011;46919;45.816;3.104;2023-07-28T12:07:02;2.03;;;1.73;;
61038;SDS011;46919;45.816;3.104;2023-07-28T12:12:23;2.20;;;2.00;;
61038;SDS011;46919;45.816;3.104;2023-07-28T12:14:49;2.42;;;1.80;;
61038;SDS011;46919;45.816;3.104;2023-07-28T12:17:17;2.17;;;1.80;;
61038;SDS011;46919;45.816;3.104;2023-07-28T12:20:01;2.25;;;1.90;;
61038;SDS011;46919;45.816;3.104;2023-07-28T12:22:42;2.10;;;1.63;;
61038;SDS011;46919;45.816;3.104;2023-07-28T12:25:09;1.77;;;1.67;;
61038;SDS011;46919;45.816;3.104;2023-07-28T12:27:35;2.05;;;1.70;;
61038;SDS011;46919;45.816;3.104;2023-07-28T12:30:01;2.92;;;1.75;;
61038;SDS011;46919;45.816;3.104;2023-07-28T12:32:27;1.92;;;1.65;;
61038;SDS011;46919;45.816;3.104;2023-07-28T12:34:53;1.92;;;1.65;;
61038;SDS011;46919;45.816;3.104;2023-07-28T12:37:18;1.80;;;1.70;;
61038;SDS011;46919;45.816;3.104;2023-07-28T12:39:44;2.10;;;1.77;;
61038;SDS011;46919;45.816;3.104;2023-07-28T12:42:10;2.25;;;1.50;;
61038;SDS011;46919;45.816;3.104;2023-07-28T12:44:39;2.03;;;1.80;;
61038;SDS011;46919;45.816;3.104;2023-07-28T12:47:06;2.55;;;1.50;;
61038;SDS011;46919;45.816;3.104;2023-07-28T12:49:32;2.42;;;1.60;;
61038;SDS011;46919;45.816;3.104;2023-07-28T12:51:59;2.70;;;1.80;;
61038;SDS011;46919;45.816;3.104;2023-07-28T12:54:25;2.58;;;1.50;;
61038;SDS011;46919;45.816;3.104;2023-07-28T12:56:52;1.70;;;1.60;;
61038;SDS011;46919;45.816;3.104;2023-07-28T12:59:18;3.55;;;1.55;;
61038;SDS011;46919;45.816;3.104;2023-07-28T13:01:44;1.60;;;1.50;;
61038;SDS011;46919;45.816;3.104;2023-07-28T13:04:10;1.67;;;1.50;;
61038;SDS011;46919;45.816;3.104;2023-07-28T13:06:35;1.60;;;1.50;;
61038;SDS011;46919;45.816;3.104;2023-07-28T13:09:01;2.88;;;1.55;;
61038;SDS011;46919;45.816;3.104;2023-07-28T13:11:28;1.65;;;1.55;;
61038;SDS011;46919;45.816;3.104;2023-07-28T13:13:54;1.50;;;1.40;;
61038;SDS011;46919;45.816;3.104;2023-07-28T13:16:19;1.60;;;1.50;;
61038;SDS011;46919;45.816;3.104;2023-07-28T13:18:45;1.85;;;1.52;;
61038;SDS011;46919;45.816;3.104;2023-07-28T13:21:10;1.60;;;1.50;;
61038;SDS011;46919;45.816;3.104;2023-07-28T13:23:36;1.80;;;1.42;;
61038;SDS011;46919;45.816;3.104;2023-07-28T13:26:02;1.63;;;1.52;;
61038;SDS011;46919;45.816;3.104;2023-07-28T13:28:31;1.80;;;1.55;;
61038;SDS011;46919;45.816;3.104;2023-07-28T13:30:57;1.98;;;1.40;;
61038;SDS011;46919;45.816;3.104;2023-07-28T13:33:22;2.33;;;1.48;;
61038;SDS011;46919;45.816;3.104;2023-07-28T13:35:48;1.70;;;1.60;;
61038;SDS011;46919;45.816;3.104;2023-07-28T13:38:13;2.40;;;1.60;;
61038;SDS011;46919;45.816;3.104;2023-07-28T13:40:39;1.52;;;1.42;;
61038;SDS011;46919;45.816;3.104;2023-07-28T13:43:04;3.60;;;1.50;;
61038;SDS011;46919;45.816;3.104;2023-07-28T13:45:30;1.75;;;1.65;;
61038;SDS011;46919;45.816;3.104;2023-07-28T13:47:55;1.70;;;1.52;;
61038;SDS011;46919;45.816;3.104;2023-07-28T13:50:21;2.03;;;1.67;;
61038;SDS011;46919;45.816;3.104;2023-07-28T13:52:46;1.83;;;1.50;;
61038;SDS011;46919;45.816;3.104;2023-07-28T13:55:11;2.67;;;1.67;;
61038;SDS011;46919;45.816;3.104;2023-07-28T13:57:37;2.60;;;1.70;;
61038;SDS011;46919;45.816;3.104;2023-07-28T14:00:03;3.05;;;1.40;;
61038;SDS011;46919;45.816;3.104;2023-07-28T14:02:33;1.70;;;1.60;;
61038;SDS011;46919;45.816;3.104;2023-07-28T14:05:02;2.63;;;1.48;;
61038;SDS011;46919;45.816;3.104;2023-07-28T14:07:28;3.40;;;1.55;;
61038;SDS011;46919;45.816;3.104;2023-07-28T14:09:54;1.70;;;1.40;;
61038;SDS011;46919;45.816;3.104;2023-07-28T14:12:19;2.20;;;1.65;;
61038;SDS011;46919;45.816;3.104;2023-07-28T14:14:44;4.30;;;1.67;;
61038;SDS011;46919;45.816;3.104;2023-07-28T14:17:10;3.13;;;1.60;;
61038;SDS011;46919;45.816;3.104;2023-07-28T14:19:37;1.92;;;1.45;;
61038;SDS011;46919;45.816;3.104;2023-07-28T14:22:03;2.33;;;1.58;;
61038;SDS011;46919;45.816;3.104;2023-07-28T14:24:29;1.70;;;1.60;;
61038;SDS011;46919;45.816;3.104;2023-07-28T14:26:54;2.17;;;1.88;;
61038;SDS011;46919;45.816;3.104;2023-07-28T14:29:20;2.53;;;1.50;;
61038;SDS011;46919;45.816;3.104;2023-07-28T14:31:46;2.17;;;1.60;;
61038;SDS011;46919;45.816;3.104;2023-07-28T14:34:11;2.67;;;1.52;;
61038;SDS011;46919;45.816;3.104;2023-07-28T14:36:36;2.10;;;1.70;;
61038;SDS011;46919;45.816;3.104;2023-07-28T14:39:03;1.85;;;1.60;;
61038;SDS011;46919;45.816;3.104;2023-07-28T14:41:28;1.77;;;1.60;;
61038;SDS011;46919;45.816;3.104;2023-07-28T14:43:54;3.38;;;1.67;;
61038;SDS011;46919;45.816;3.104;2023-07-28T14:46:19;2.10;;;1.80;;
61038;SDS011;46919;45.816;3.104;2023-07-28T14:48:47;1.92;;;1.73;;
61038;SDS011;46919;45.816;3.104;2023-07-28T14:51:13;2.25;;;1.90;;
61038;SDS011;46919;45.816;3.104;2023-07-28T14:53:38;1.67;;;1.33;;
61038;SDS011;46919;45.816;3.104;2023-07-28T14:56:05;2.38;;;1.67;;
61038;SDS011;46919;45.816;3.104;2023-07-28T14:58:31;2.42;;;1.92;;
61038;SDS011;46919;45.816;3.104;2023-07-28T15:00:57;1.70;;;1.52;;